createdAt,value
2023-03-23T00:00:30.915Z,36.95
2023-03-23T00:01:03.998Z,37.05
2023-03-23T00:01:38.994Z,37.03
2023-03-23T00:02:11.788Z,37.05
2023-03-23T00:02:44.856Z,37.15
2023-03-23T00:03:19.898Z,36.96
2023-03-23T00:03:53.911Z,36.97
2023-03-23T00:04:30.512Z,37.04
2023-03-23T00:05:05.513Z,37.32
2023-03-23T00:05:39.740Z,37.29
2023-03-23T00:06:18.083Z,37.22
2023-03-23T00:06:53.169Z,37.20
2023-03-23T00:07:28.790Z,37.04
2023-03-23T00:08:03.444Z,37.10
2023-03-23T00:08:46.585Z,36.75
2023-03-23T00:09:24.789Z,36.87
2023-03-23T00:09:57.620Z,36.76
2023-03-23T00:10:34.302Z,36.45
2023-03-23T00:11:06.841Z,36.83
2023-03-23T00:11:40.206Z,36.58
2023-03-23T00:12:16.688Z,36.96
2023-03-23T00:12:51.582Z,36.62
2023-03-23T00:13:24.937Z,36.67
2023-03-23T00:13:59.030Z,36.53
2023-03-23T00:14:42.099Z,36.51
2023-03-23T00:15:17.847Z,36.72
2023-03-23T00:15:50.562Z,37.27
2023-03-23T00:16:30.100Z,36.88
2023-03-23T00:17:05.161Z,36.72
2023-03-23T00:17:37.443Z,36.52
2023-03-23T00:18:09.946Z,36.48
2023-03-23T00:18:45.453Z,36.50
2023-03-23T00:19:20.362Z,36.81
2023-03-23T00:19:57.973Z,36.94
2023-03-23T00:20:30.770Z,36.49
2023-03-23T00:21:05.112Z,36.29
2023-03-23T00:21:42.713Z,36.73
2023-03-23T00:22:16.114Z,36.44
2023-03-23T00:22:48.461Z,36.42
2023-03-23T00:23:24.790Z,36.27
2023-03-23T00:23:57.121Z,36.45
2023-03-23T00:24:30.141Z,36.56
2023-03-23T00:25:05.135Z,36.52
2023-03-23T00:25:37.578Z,36.83
2023-03-23T00:26:09.993Z,36.93
2023-03-23T00:26:48.260Z,36.67
2023-03-23T00:27:22.818Z,36.79
2023-03-23T00:27:55.318Z,36.57
2023-03-23T00:28:31.401Z,36.86
2023-03-23T00:29:05.018Z,36.74
2023-03-23T00:29:37.933Z,36.79
2023-03-23T00:30:13.610Z,36.71
2023-03-23T00:30:45.949Z,36.88
2023-03-23T00:31:18.428Z,36.88
2023-03-23T00:31:53.842Z,36.84
2023-03-23T00:32:28.526Z,37.16
2023-03-23T00:33:00.870Z,37.13
2023-03-23T00:33:39.062Z,37.31
2023-03-23T00:34:13.406Z,37.16
2023-03-23T00:34:47.311Z,37.31
2023-03-23T00:35:24.849Z,37.51
2023-03-23T00:35:57.423Z,37.44
2023-03-23T00:36:30.350Z,36.97
2023-03-23T00:37:05.298Z,37.32
2023-03-23T00:37:37.618Z,37.26
2023-03-23T00:38:09.968Z,37.08
2023-03-23T00:38:45.625Z,37.22
2023-03-23T00:39:18.718Z,37.36
2023-03-23T00:39:58.334Z,37.11
2023-03-23T00:40:31.700Z,37.20
2023-03-23T00:41:04.266Z,37.34
2023-03-23T00:41:39.733Z,37.02
2023-03-23T00:42:13.735Z,37.37
2023-03-23T00:42:47.218Z,36.98
2023-03-23T00:43:20.456Z,37.43
2023-03-23T00:43:55.589Z,37.63
2023-03-23T00:44:29.548Z,37.55
2023-03-23T00:45:02.194Z,37.17
2023-03-23T00:45:37.622Z,37.43
2023-03-23T00:46:10.797Z,37.37
2023-03-23T00:46:46.121Z,37.44
2023-03-23T00:47:22.102Z,37.56
2023-03-23T00:47:54.841Z,37.18
2023-03-23T00:48:27.162Z,37.59
2023-03-23T00:49:02.140Z,37.42
2023-03-23T00:49:36.037Z,37.47
2023-03-23T00:50:10.810Z,37.41
2023-03-23T00:50:48.335Z,37.77
2023-03-23T00:51:20.858Z,37.30
2023-03-23T00:51:53.290Z,37.17
2023-03-23T00:52:28.198Z,37.27
2023-03-23T00:53:00.612Z,37.41
2023-03-23T00:53:33.435Z,37.17
2023-03-23T00:54:09.174Z,37.05
2023-03-23T00:54:41.488Z,37.00
2023-03-23T00:55:14.110Z,37.42
2023-03-23T00:55:50.909Z,37.37
2023-03-23T00:56:24.928Z,37.63
2023-03-23T00:56:57.277Z,37.56
2023-03-23T00:57:32.449Z,37.33
2023-03-23T00:58:04.804Z,37.31
2023-03-23T00:58:37.301Z,37.56
2023-03-23T00:59:12.660Z,37.54
2023-03-23T00:59:44.958Z,37.63
2023-03-23T01:00:17.976Z,37.71
2023-03-23T01:00:52.942Z,37.46
2023-03-23T01:01:25.589Z,37.49
2023-03-23T01:01:58.091Z,37.84
2023-03-23T01:02:32.998Z,37.48
2023-03-23T01:03:06.088Z,37.83
2023-03-23T01:03:39.384Z,37.51
2023-03-23T01:04:13.389Z,37.58
2023-03-23T01:04:53.332Z,37.59
2023-03-23T01:05:25.729Z,37.42
2023-03-23T01:06:05.964Z,37.92
2023-03-23T01:06:48.197Z,37.71
2023-03-23T01:07:21.885Z,37.50
2023-03-23T01:07:54.565Z,37.46
2023-03-23T01:08:32.688Z,37.44
2023-03-23T01:09:05.125Z,37.84
2023-03-23T01:09:37.542Z,37.54
2023-03-23T01:10:13.713Z,37.77
2023-03-23T01:10:46.245Z,37.49
2023-03-23T01:11:18.590Z,37.65
2023-03-23T01:11:56.706Z,37.46
2023-03-23T01:12:29.725Z,37.72
2023-03-23T01:13:03.677Z,37.85
2023-03-23T01:13:38.596Z,37.94
2023-03-23T01:14:11.443Z,37.73
2023-03-23T01:14:43.869Z,38.11
2023-03-23T01:15:19.523Z,37.94
2023-03-23T01:15:52.110Z,38.19
2023-03-23T01:16:25.911Z,38.12
2023-03-23T01:17:01.351Z,37.90
2023-03-23T01:17:33.699Z,37.61
2023-03-23T01:18:06.215Z,37.53
2023-03-23T01:18:41.374Z,37.95
2023-03-23T01:19:14.003Z,37.88
2023-03-23T01:19:46.380Z,37.93
2023-03-23T01:20:21.703Z,38.02
2023-03-23T01:20:54.098Z,38.18
2023-03-23T01:21:29.021Z,38.08
2023-03-23T01:22:04.685Z,37.85
2023-03-23T01:22:37.462Z,38.02
2023-03-23T01:23:09.825Z,37.73
2023-03-23T01:23:44.729Z,37.78
2023-03-23T01:24:17.322Z,37.67
2023-03-23T01:24:49.777Z,37.83
2023-03-23T01:25:24.735Z,37.55
2023-03-23T01:25:59.217Z,38.04
2023-03-23T01:26:31.585Z,38.07
2023-03-23T01:27:07.871Z,37.82
2023-03-23T01:27:41.352Z,38.10
2023-03-23T01:28:14.107Z,38.34
2023-03-23T01:28:49.000Z,38.34
2023-03-23T01:29:21.302Z,38.10
2023-03-23T01:29:53.650Z,37.90
2023-03-23T01:30:29.389Z,38.36
2023-03-23T01:31:03.065Z,38.15
2023-03-23T01:31:47.126Z,37.69
2023-03-23T01:32:22.301Z,38.06
2023-03-23T01:32:55.743Z,37.76
2023-03-23T01:33:28.787Z,37.90
2023-03-23T01:34:04.169Z,37.76
2023-03-23T01:34:37.520Z,37.50
2023-03-23T01:35:10.951Z,37.83
2023-03-23T01:35:46.219Z,37.85
2023-03-23T01:36:20.609Z,37.67
2023-03-23T01:36:58.638Z,37.38
2023-03-23T01:37:31.766Z,37.42
2023-03-23T01:38:04.162Z,37.62
2023-03-23T01:38:39.613Z,37.29
2023-03-23T01:39:12.010Z,37.52
2023-03-23T01:39:50.732Z,37.73
2023-03-23T01:40:23.444Z,37.56
2023-03-23T01:40:57.638Z,37.62
2023-03-23T01:41:33.066Z,37.44
2023-03-23T01:42:09.722Z,37.62
2023-03-23T01:42:42.897Z,37.34
2023-03-23T01:43:20.996Z,37.54
2023-03-23T01:44:02.669Z,37.28
2023-03-23T01:45:11.147Z,37.72
2023-03-23T01:45:43.796Z,37.52
2023-03-23T01:46:16.387Z,37.27
2023-03-23T01:46:51.752Z,37.55
2023-03-23T01:47:27.768Z,37.57
2023-03-23T01:48:08.710Z,37.32
2023-03-23T01:48:44.025Z,37.59
2023-03-23T01:49:21.090Z,37.45
2023-03-23T01:49:53.558Z,37.39
2023-03-23T01:50:29.898Z,37.45
2023-03-23T01:51:05.548Z,37.80
2023-03-23T01:51:45.088Z,37.25
2023-03-23T01:52:22.776Z,37.42
2023-03-23T01:52:58.009Z,37.96
2023-03-23T01:53:36.002Z,37.77
2023-03-23T01:54:11.690Z,38.04
2023-03-23T01:54:46.008Z,38.11
2023-03-23T01:55:19.218Z,38.19
2023-03-23T01:55:55.839Z,37.84
2023-03-23T01:56:35.262Z,37.82
2023-03-23T01:57:09.208Z,38.09
2023-03-23T01:57:44.211Z,38.16
2023-03-23T01:58:19.186Z,37.97
2023-03-23T01:58:54.756Z,38.32
2023-03-23T01:59:28.361Z,38.49
2023-03-23T02:00:19.393Z,38.82
2023-03-23T02:01:00.232Z,38.47
2023-03-23T02:01:37.859Z,38.31
2023-03-23T02:02:12.334Z,38.41
2023-03-23T02:02:47.293Z,38.86
2023-03-23T02:03:25.317Z,38.86
2023-03-23T02:03:59.280Z,38.62
2023-03-23T02:04:32.416Z,39.04
2023-03-23T02:05:11.526Z,38.54
2023-03-23T02:05:46.758Z,38.42
2023-03-23T02:06:25.954Z,38.38
2023-03-23T02:07:15.883Z,38.09
2023-03-23T02:07:51.618Z,37.85
2023-03-23T02:08:24.266Z,37.95
2023-03-23T02:09:00.176Z,37.90
2023-03-23T02:09:43.370Z,37.76
2023-03-23T02:10:16.131Z,38.11
2023-03-23T02:10:52.362Z,38.03
2023-03-23T02:11:25.251Z,37.51
2023-03-23T02:11:58.090Z,37.61
2023-03-23T02:12:30.610Z,37.71
2023-03-23T02:13:07.694Z,37.53
2023-03-23T02:13:40.129Z,37.78
2023-03-23T02:14:12.625Z,37.58
2023-03-23T02:14:47.828Z,37.61
2023-03-23T02:15:21.709Z,37.93
2023-03-23T02:16:05.675Z,37.94
2023-03-23T02:16:44.387Z,37.85
2023-03-23T02:17:19.867Z,37.94
2023-03-23T02:17:59.798Z,37.85
2023-03-23T02:18:48.539Z,37.57
2023-03-23T02:19:41.427Z,37.76
2023-03-23T02:20:29.607Z,38.10
2023-03-23T02:21:32.545Z,37.71
2023-03-23T02:22:29.031Z,37.89
2023-03-23T02:23:22.469Z,37.80
2023-03-23T02:24:31.575Z,37.33
2023-03-23T02:25:19.512Z,37.07
2023-03-23T02:26:07.764Z,37.11
2023-03-23T02:26:48.893Z,37.36
2023-03-23T02:27:42.622Z,37.43
2023-03-23T02:28:31.258Z,37.73
2023-03-23T02:29:29.677Z,38.24
2023-03-23T02:30:22.165Z,37.99
2023-03-23T02:31:07.266Z,37.92
2023-03-23T02:32:01.327Z,37.73
2023-03-23T02:32:49.848Z,38.24
2023-03-23T02:33:31.490Z,38.38
2023-03-23T02:34:09.519Z,38.12
2023-03-23T02:34:43.237Z,38.22
2023-03-23T02:35:20.040Z,37.85
2023-03-23T02:35:55.894Z,37.89
2023-03-23T02:36:35.720Z,38.19
2023-03-23T02:37:11.666Z,38.00
2023-03-23T02:37:47.714Z,38.29
2023-03-23T02:38:26.061Z,38.43
2023-03-23T02:39:02.334Z,38.64
2023-03-23T02:39:39.720Z,38.54
2023-03-23T02:40:19.131Z,38.09
2023-03-23T02:40:52.215Z,38.72
2023-03-23T02:41:27.464Z,38.17
2023-03-23T02:42:13.903Z,38.56
2023-03-23T02:42:51.477Z,38.22
2023-03-23T02:43:26.022Z,38.60
2023-03-23T02:44:11.665Z,38.29
2023-03-23T02:44:46.348Z,38.31
2023-03-23T02:45:19.312Z,38.17
2023-03-23T02:45:55.275Z,38.37
2023-03-23T02:46:29.363Z,38.06
2023-03-23T02:47:04.467Z,38.17
2023-03-23T02:47:39.354Z,38.66
2023-03-23T02:48:16.152Z,38.56
2023-03-23T02:48:52.484Z,38.10
2023-03-23T02:49:26.619Z,38.21
2023-03-23T02:50:02.969Z,38.21
2023-03-23T02:50:36.915Z,38.34
2023-03-23T02:51:11.494Z,38.53
2023-03-23T02:51:49.111Z,39.02
2023-03-23T02:52:23.665Z,38.92
2023-03-23T02:52:59.871Z,38.53
2023-03-23T02:53:39.563Z,38.77
2023-03-23T02:54:13.106Z,38.63
2023-03-23T02:54:46.110Z,38.58
2023-03-23T02:55:24.182Z,38.87
2023-03-23T02:55:57.615Z,38.71
2023-03-23T02:56:34.816Z,38.99
2023-03-23T02:57:11.474Z,38.58
2023-03-23T02:57:47.940Z,38.70
2023-03-23T02:58:22.971Z,38.68
2023-03-23T02:58:58.051Z,38.57
2023-03-23T02:59:31.031Z,38.54
2023-03-23T03:00:07.354Z,38.27
2023-03-23T03:00:43.137Z,38.82
2023-03-23T03:01:50.499Z,38.82
2023-03-23T03:02:27.629Z,38.63
2023-03-23T03:03:00.188Z,38.67
2023-03-23T03:03:36.802Z,39.09
2023-03-23T03:04:14.651Z,38.67
2023-03-23T03:04:55.517Z,38.96
2023-03-23T03:05:37.455Z,38.46
2023-03-23T03:06:13.649Z,38.38
2023-03-23T03:06:54.286Z,38.63
2023-03-23T03:07:49.971Z,38.51
2023-03-23T03:08:31.030Z,38.61
2023-03-23T03:09:07.584Z,38.53
2023-03-23T03:09:44.482Z,38.65
2023-03-23T03:10:23.720Z,38.87
2023-03-23T03:10:59.021Z,38.50
2023-03-23T03:11:35.740Z,38.79
2023-03-23T03:12:17.015Z,38.61
2023-03-23T03:12:54.636Z,38.50
2023-03-23T03:13:39.520Z,38.75
2023-03-23T03:14:18.466Z,38.91
2023-03-23T03:14:54.139Z,39.12
2023-03-23T03:15:31.916Z,39.26
2023-03-23T03:16:09.212Z,38.97
2023-03-23T03:16:46.589Z,39.27
2023-03-23T03:17:24.738Z,39.79
2023-03-23T03:18:02.912Z,39.51
2023-03-23T03:18:40.181Z,39.44
2023-03-23T03:19:23.411Z,39.67
2023-03-23T03:19:58.924Z,39.38
2023-03-23T03:20:33.705Z,39.23
2023-03-23T03:21:14.092Z,39.16
2023-03-23T03:21:49.139Z,39.04
2023-03-23T03:22:29.827Z,38.82
2023-03-23T03:23:06.074Z,38.91
2023-03-23T03:23:42.673Z,38.42
2023-03-23T03:24:19.319Z,38.19
2023-03-23T03:25:00.672Z,38.18
2023-03-23T03:25:52.779Z,37.63
2023-03-23T03:26:36.365Z,38.07
2023-03-23T03:27:25.097Z,38.04
2023-03-23T03:28:11.759Z,37.91
2023-03-23T03:28:50.330Z,38.07
2023-03-23T03:29:30.673Z,38.70
2023-03-23T03:30:09.409Z,39.40
2023-03-23T03:30:45.251Z,38.95
2023-03-23T03:31:19.346Z,38.85
2023-03-23T03:31:56.484Z,39.34
2023-03-23T03:32:33.841Z,39.50
2023-03-23T03:33:06.510Z,39.52
2023-03-23T03:33:41.578Z,39.09
2023-03-23T03:34:18.721Z,38.74
2023-03-23T03:34:54.063Z,38.24
2023-03-23T03:35:29.416Z,38.17
2023-03-23T03:36:04.928Z,38.56
2023-03-23T03:36:38.909Z,38.52
2023-03-23T03:37:14.977Z,38.13
2023-03-23T03:37:50.354Z,38.37
2023-03-23T03:38:23.068Z,38.51
2023-03-23T03:39:00.446Z,38.81
2023-03-23T03:39:35.987Z,38.45
2023-03-23T03:40:12.795Z,38.45
2023-03-23T03:40:49.223Z,38.87
2023-03-23T03:41:22.775Z,39.50
2023-03-23T03:41:56.303Z,40.00
2023-03-23T03:42:31.245Z,39.37
2023-03-23T03:43:04.103Z,39.09
2023-03-23T03:43:36.545Z,38.81
2023-03-23T03:44:13.408Z,38.40
2023-03-23T03:44:47.073Z,38.95
2023-03-23T03:45:20.742Z,39.73
2023-03-23T03:45:55.674Z,39.43
2023-03-23T03:46:30.866Z,39.21
2023-03-23T03:47:03.679Z,39.36
2023-03-23T03:47:39.164Z,38.78
2023-03-23T03:48:11.720Z,39.11
2023-03-23T03:48:44.063Z,38.89
2023-03-23T03:49:23.726Z,39.12
2023-03-23T03:49:56.519Z,39.47
2023-03-23T03:50:30.698Z,39.73
2023-03-23T03:51:06.120Z,39.18
2023-03-23T03:51:42.579Z,38.81
2023-03-23T03:52:23.157Z,39.12
2023-03-23T03:52:59.090Z,39.29
2023-03-23T03:53:32.803Z,39.87
2023-03-23T03:54:05.388Z,39.35
2023-03-23T03:54:41.727Z,38.84
2023-03-23T03:55:14.428Z,40.01
2023-03-23T03:55:56.514Z,38.99
2023-03-23T03:56:28.995Z,38.78
2023-03-23T03:57:14.167Z,38.75
2023-03-23T03:58:09.001Z,39.32
2023-03-23T03:59:21.499Z,39.37
2023-03-23T04:00:19.617Z,38.78
2023-03-23T04:00:58.060Z,39.04
2023-03-23T04:01:35.907Z,39.31
2023-03-23T04:02:10.864Z,39.01
2023-03-23T04:02:43.826Z,38.86
2023-03-23T04:03:17.959Z,39.07
2023-03-23T04:04:10.419Z,38.66
2023-03-23T04:04:46.179Z,38.68
2023-03-23T04:05:20.220Z,38.97
2023-03-23T04:06:00.744Z,39.03
2023-03-23T04:06:33.866Z,39.02
2023-03-23T04:07:06.978Z,38.78
2023-03-23T04:07:40.439Z,38.72
2023-03-23T04:08:15.701Z,38.92
2023-03-23T04:08:49.503Z,39.42
2023-03-23T04:09:41.576Z,40.21
2023-03-23T04:10:32.614Z,40.19
2023-03-23T04:11:06.901Z,39.07
2023-03-23T04:12:06.922Z,39.26
2023-03-23T04:12:59.411Z,39.81
2023-03-23T04:13:42.985Z,39.84
2023-03-23T04:14:38.097Z,40.01
2023-03-23T04:15:11.760Z,39.52
2023-03-23T04:16:07.005Z,39.99
2023-03-23T04:16:41.786Z,39.56
2023-03-23T04:17:16.026Z,39.74
2023-03-23T04:17:51.370Z,39.49
2023-03-23T04:18:25.376Z,39.31
2023-03-23T04:18:59.485Z,39.46
2023-03-23T04:19:36.096Z,39.53
2023-03-23T04:20:16.902Z,39.72
2023-03-23T04:21:09.230Z,39.28
2023-03-23T04:21:41.951Z,39.51
2023-03-23T04:22:17.492Z,39.27
2023-03-23T04:22:56.194Z,40.46
2023-03-23T04:23:34.571Z,39.69
2023-03-23T04:24:08.990Z,39.74
2023-03-23T04:24:59.707Z,40.00
2023-03-23T04:25:33.999Z,39.61
2023-03-23T04:26:09.052Z,39.12
2023-03-23T04:26:45.898Z,39.03
2023-03-23T04:27:29.217Z,39.73
2023-03-23T04:28:06.988Z,39.10
2023-03-23T04:28:46.444Z,39.16
2023-03-23T04:29:42.440Z,39.41
2023-03-23T04:30:19.156Z,39.30
2023-03-23T04:31:10.103Z,39.50
2023-03-23T04:31:46.310Z,39.08
2023-03-23T04:32:30.107Z,39.57
2023-03-23T04:33:05.226Z,40.08
2023-03-23T04:33:58.625Z,39.65
2023-03-23T04:34:33.895Z,40.45
2023-03-23T04:35:12.902Z,40.42
2023-03-23T04:36:56.444Z,39.96
2023-03-23T04:37:31.308Z,40.57
2023-03-23T04:38:04.647Z,40.29
2023-03-23T04:38:37.402Z,40.75
2023-03-23T04:39:20.264Z,41.15
2023-03-23T04:40:01.217Z,40.57
2023-03-23T04:40:40.337Z,40.41
2023-03-23T04:41:25.725Z,40.21
2023-03-23T04:42:35.921Z,40.56
2023-03-23T04:43:45.216Z,40.88
2023-03-23T04:44:33.971Z,40.71
2023-03-23T04:45:11.338Z,40.22
2023-03-23T04:45:48.822Z,40.35
2023-03-23T04:46:22.497Z,40.04
2023-03-23T04:46:57.358Z,40.60
2023-03-23T04:47:41.161Z,40.63
2023-03-23T04:48:24.130Z,40.86
2023-03-23T04:49:08.767Z,40.67
2023-03-23T04:49:43.588Z,40.67
2023-03-23T04:50:26.231Z,40.32
2023-03-23T04:51:01.046Z,40.63
2023-03-23T04:51:40.399Z,40.34
2023-03-23T04:52:29.515Z,40.78
2023-03-23T04:53:05.163Z,40.42
2023-03-23T04:53:38.217Z,40.95
2023-03-23T04:54:13.992Z,41.03
2023-03-23T04:54:48.971Z,40.81
2023-03-23T04:55:24.808Z,41.46
2023-03-23T04:56:02.912Z,41.24
2023-03-23T04:56:42.457Z,41.24
2023-03-23T04:57:22.028Z,40.88
2023-03-23T04:58:15.474Z,41.42
2023-03-23T04:59:02.218Z,40.91
2023-03-23T04:59:42.180Z,41.05
2023-03-23T05:00:24.287Z,41.80
2023-03-23T05:01:00.365Z,41.61
2023-03-23T05:01:33.140Z,41.59
2023-03-23T05:02:22.616Z,41.61
2023-03-23T05:03:01.935Z,41.95
2023-03-23T05:03:35.879Z,41.76
2023-03-23T05:04:12.225Z,41.83
2023-03-23T05:04:44.801Z,41.76
2023-03-23T05:05:21.692Z,41.78
2023-03-23T05:05:57.914Z,41.86
2023-03-23T05:06:30.301Z,41.44
2023-03-23T05:07:12.155Z,41.95
2023-03-23T05:07:58.221Z,41.34
2023-03-23T05:08:34.488Z,41.46
2023-03-23T05:09:06.900Z,41.78
2023-03-23T05:09:42.692Z,41.61
2023-03-23T05:10:16.836Z,41.78
2023-03-23T05:11:04.146Z,41.80
2023-03-23T05:11:40.360Z,42.04
2023-03-23T05:12:12.752Z,41.62
2023-03-23T05:13:02.893Z,41.94
2023-03-23T05:13:35.274Z,42.35
2023-03-23T05:14:07.860Z,41.80
2023-03-23T05:14:42.293Z,42.02
2023-03-23T05:15:20.731Z,41.34
2023-03-23T05:15:53.199Z,42.00
2023-03-23T05:16:30.103Z,41.74
2023-03-23T05:17:05.307Z,41.11
2023-03-23T05:17:38.015Z,41.70
2023-03-23T05:18:18.307Z,41.92
2023-03-23T05:18:54.146Z,41.32
2023-03-23T05:19:26.523Z,41.83
2023-03-23T05:19:59.995Z,41.92
2023-03-23T05:20:47.654Z,41.67
2023-03-23T05:21:23.699Z,42.19
2023-03-23T05:22:04.027Z,41.65
2023-03-23T05:22:53.177Z,41.83
2023-03-23T05:23:32.093Z,41.93
2023-03-23T05:24:11.771Z,41.71
2023-03-23T05:24:47.316Z,41.97
2023-03-23T05:25:21.290Z,41.78
2023-03-23T05:26:04.284Z,41.92
2023-03-23T05:26:36.649Z,41.89
2023-03-23T05:27:12.910Z,41.80
2023-03-23T05:27:53.973Z,42.04
2023-03-23T05:28:44.470Z,42.03
2023-03-23T05:29:31.462Z,41.55
2023-03-23T05:30:07.946Z,41.80
2023-03-23T05:30:46.746Z,41.70
2023-03-23T05:31:21.614Z,41.68
2023-03-23T05:31:56.935Z,41.73
2023-03-23T05:32:30.167Z,41.74
2023-03-23T05:33:08.769Z,41.05
2023-03-23T05:34:13.316Z,41.74
2023-03-23T05:35:00.638Z,41.61
2023-03-23T05:35:36.162Z,41.73
2023-03-23T05:36:12.015Z,41.63
2023-03-23T05:37:04.720Z,41.50
2023-03-23T05:37:54.442Z,40.93
2023-03-23T05:38:40.073Z,41.37
2023-03-23T05:39:13.975Z,41.37
2023-03-23T05:40:13.233Z,41.44
2023-03-23T05:40:53.618Z,41.20
2023-03-23T05:41:34.600Z,41.56
2023-03-23T05:42:16.531Z,42.20
2023-03-23T05:43:00.025Z,42.01
2023-03-23T05:43:46.946Z,41.55
2023-03-23T05:44:28.028Z,41.76
2023-03-23T05:45:09.920Z,41.39
2023-03-23T05:45:44.866Z,41.70
2023-03-23T05:46:17.258Z,41.26
2023-03-23T05:46:49.700Z,41.17
2023-03-23T05:47:25.115Z,42.05
2023-03-23T05:48:01.983Z,41.88
2023-03-23T05:48:35.031Z,41.68
2023-03-23T05:49:12.066Z,41.58
2023-03-23T05:49:47.208Z,41.95
2023-03-23T05:50:23.828Z,41.59
2023-03-23T05:50:58.878Z,41.52
2023-03-23T05:51:32.709Z,41.52
2023-03-23T05:52:05.374Z,41.28
2023-03-23T05:52:40.991Z,41.26
2023-03-23T05:53:19.077Z,41.85
2023-03-23T05:53:51.418Z,41.10
2023-03-23T05:54:26.904Z,41.35
2023-03-23T05:55:00.248Z,41.90
2023-03-23T05:55:36.028Z,41.54
2023-03-23T05:56:17.524Z,41.13
2023-03-23T05:57:07.891Z,40.93
2023-03-23T05:57:56.477Z,41.20
2023-03-23T05:58:39.466Z,41.17
2023-03-23T05:59:12.131Z,41.37
2023-03-23T05:59:49.298Z,40.95
2023-03-23T06:00:31.307Z,41.46
2023-03-23T06:01:18.963Z,41.08
2023-03-23T06:01:52.744Z,41.00
2023-03-23T06:02:29.425Z,41.18
2023-03-23T06:03:05.358Z,40.64
2023-03-23T06:03:46.676Z,41.24
2023-03-23T06:04:29.715Z,41.50
2023-03-23T06:05:20.844Z,41.32
2023-03-23T06:06:01.718Z,41.32
2023-03-23T06:06:42.961Z,41.09
2023-03-23T06:07:19.437Z,40.73
2023-03-23T06:08:00.149Z,41.19
2023-03-23T06:08:35.276Z,40.81
2023-03-23T06:09:11.033Z,40.97
2023-03-23T06:10:10.670Z,40.87
2023-03-23T06:10:47.080Z,41.14
2023-03-23T06:11:21.011Z,41.73
2023-03-23T06:12:13.963Z,40.99
2023-03-23T06:13:05.103Z,41.25
2023-03-23T06:13:55.892Z,41.28
2023-03-23T06:14:28.316Z,41.12
2023-03-23T06:15:01.139Z,41.12
2023-03-23T06:15:59.807Z,41.29
2023-03-23T06:16:56.927Z,41.12
2023-03-23T06:17:32.023Z,41.31
2023-03-23T06:18:05.139Z,41.56
2023-03-23T06:18:47.484Z,41.84
2023-03-23T06:19:28.043Z,41.24
2023-03-23T06:20:11.273Z,41.34
2023-03-23T06:20:48.242Z,41.44
2023-03-23T06:21:34.223Z,41.44
2023-03-23T06:22:39.023Z,41.15
2023-03-23T06:23:18.854Z,41.17
2023-03-23T06:23:57.078Z,41.39
2023-03-23T06:24:35.543Z,41.57
2023-03-23T06:25:12.534Z,41.03
2023-03-23T06:25:47.527Z,41.39
2023-03-23T06:26:21.603Z,41.08
2023-03-23T06:27:02.235Z,41.33
2023-03-23T06:27:36.404Z,41.37
2023-03-23T06:28:10.650Z,41.38
2023-03-23T06:28:50.292Z,41.22
2023-03-23T06:29:22.620Z,41.60
2023-03-23T06:30:00.037Z,41.53
2023-03-23T06:30:35.330Z,41.63
2023-03-23T06:31:08.835Z,41.46
2023-03-23T06:31:47.627Z,41.82
2023-03-23T06:32:20.517Z,41.68
2023-03-23T06:32:57.040Z,41.27
2023-03-23T06:33:49.428Z,41.65
2023-03-23T06:34:48.822Z,42.12
2023-03-23T06:35:42.153Z,41.65
2023-03-23T06:36:24.981Z,41.87
2023-03-23T06:37:06.586Z,41.42
2023-03-23T06:37:46.567Z,41.71
2023-03-23T06:38:24.389Z,41.55
2023-03-23T06:39:02.307Z,41.54
2023-03-23T06:39:50.547Z,41.62
2023-03-23T06:40:37.789Z,41.76
2023-03-23T06:41:10.927Z,41.67
2023-03-23T06:41:45.889Z,41.86
2023-03-23T06:42:19.311Z,42.50
2023-03-23T06:43:01.269Z,41.85
2023-03-23T06:43:52.891Z,41.84
2023-03-23T06:44:34.408Z,41.92
2023-03-23T06:45:08.739Z,41.92
2023-03-23T06:45:43.097Z,41.78
2023-03-23T06:46:44.452Z,41.77
2023-03-23T06:47:39.932Z,41.58
2023-03-23T06:48:16.375Z,41.52
2023-03-23T06:48:51.047Z,41.69
2023-03-23T06:49:26.844Z,42.09
2023-03-23T06:50:11.549Z,41.45
2023-03-23T06:50:47.797Z,41.95
2023-03-23T06:51:22.711Z,42.03
2023-03-23T06:52:02.598Z,41.75
2023-03-23T06:52:35.610Z,41.99
2023-03-23T06:53:07.971Z,42.29
2023-03-23T06:53:43.074Z,41.92
2023-03-23T06:54:21.458Z,41.85
2023-03-23T06:54:54.758Z,41.57
2023-03-23T06:55:30.308Z,42.04
2023-03-23T06:56:02.689Z,41.75
2023-03-23T06:56:39.247Z,41.92
2023-03-23T06:57:12.145Z,42.29
2023-03-23T06:57:45.933Z,42.06
2023-03-23T06:58:22.410Z,41.99
2023-03-23T06:58:54.787Z,41.89
2023-03-23T06:59:30.979Z,42.00
2023-03-23T07:00:15.015Z,41.49
2023-03-23T07:00:48.980Z,41.92
2023-03-23T07:01:23.270Z,41.98
2023-03-23T07:02:05.458Z,42.46
2023-03-23T07:02:38.963Z,41.65
2023-03-23T07:03:11.494Z,41.93
2023-03-23T07:03:47.736Z,42.09
2023-03-23T07:04:24.735Z,42.09
2023-03-23T07:05:10.232Z,42.02
2023-03-23T07:05:43.629Z,41.82
2023-03-23T07:06:17.438Z,41.85
2023-03-23T07:06:58.680Z,42.14
2023-03-23T07:07:31.404Z,41.70
2023-03-23T07:08:19.163Z,41.84
2023-03-23T07:08:57.200Z,41.71
2023-03-23T07:09:43.193Z,42.17
2023-03-23T07:10:16.858Z,41.58
2023-03-23T07:10:54.996Z,41.32
2023-03-23T07:11:31.998Z,41.62
2023-03-23T07:12:08.783Z,41.34
2023-03-23T07:12:50.033Z,41.20
2023-03-23T07:13:23.842Z,41.49
2023-03-23T07:14:03.907Z,41.29
2023-03-23T07:14:36.641Z,41.10
2023-03-23T07:15:11.608Z,41.25
2023-03-23T07:15:49.766Z,41.19
2023-03-23T07:16:22.347Z,41.37
2023-03-23T07:16:55.812Z,40.89
2023-03-23T07:17:30.771Z,40.83
2023-03-23T07:18:13.369Z,40.81
2023-03-23T07:18:52.670Z,40.89
2023-03-23T07:19:25.962Z,40.75
2023-03-23T07:19:58.904Z,40.71
2023-03-23T07:20:34.927Z,40.47
2023-03-23T07:21:08.208Z,40.74
2023-03-23T07:21:40.559Z,40.76
2023-03-23T07:22:15.788Z,40.93
2023-03-23T07:22:52.842Z,40.63
2023-03-23T07:23:57.074Z,40.61
2023-03-23T07:24:50.354Z,40.30
2023-03-23T07:25:31.464Z,40.47
2023-03-23T07:26:06.338Z,40.57
2023-03-23T07:26:51.373Z,40.63
2023-03-23T07:27:23.989Z,40.69
2023-03-23T07:27:58.946Z,40.85
2023-03-23T07:28:34.333Z,40.37
2023-03-23T07:29:14.059Z,40.43
2023-03-23T07:29:56.159Z,40.61
2023-03-23T07:30:32.016Z,40.13
2023-03-23T07:31:09.097Z,40.53
2023-03-23T07:31:42.500Z,40.86
2023-03-23T07:32:15.635Z,40.76
2023-03-23T07:32:50.607Z,40.38
2023-03-23T07:33:24.878Z,40.90
2023-03-23T07:33:58.100Z,40.57
2023-03-23T07:34:41.483Z,40.79
2023-03-23T07:35:28.309Z,40.98
2023-03-23T07:36:09.403Z,41.22
2023-03-23T07:36:43.270Z,41.29
2023-03-23T07:37:19.441Z,40.69
2023-03-23T07:37:56.359Z,41.00
2023-03-23T07:38:35.051Z,40.67
2023-03-23T07:39:07.501Z,41.03
2023-03-23T07:39:42.982Z,40.81
2023-03-23T07:40:19.920Z,40.88
2023-03-23T07:40:59.145Z,40.90
2023-03-23T07:41:31.948Z,40.60
2023-03-23T07:42:10.040Z,40.83
2023-03-23T07:42:56.471Z,40.78
2023-03-23T07:43:39.878Z,41.16
2023-03-23T07:44:31.030Z,41.05
2023-03-23T07:45:07.103Z,40.42
2023-03-23T07:45:41.773Z,40.11
2023-03-23T07:46:17.287Z,40.42
2023-03-23T07:47:03.294Z,39.67
2023-03-23T07:47:41.484Z,40.11
2023-03-23T07:48:21.085Z,40.04
2023-03-23T07:48:58.286Z,40.41
2023-03-23T07:49:38.446Z,40.15
2023-03-23T07:50:30.380Z,40.42
2023-03-23T07:51:03.357Z,40.01
2023-03-23T07:51:39.407Z,39.96
2023-03-23T07:52:15.944Z,40.42
2023-03-23T07:52:48.671Z,40.21
2023-03-23T07:53:26.302Z,40.47
2023-03-23T07:54:08.118Z,40.76
2023-03-23T07:55:18.683Z,41.41
2023-03-23T07:56:02.976Z,41.08
2023-03-23T07:56:58.618Z,40.82
2023-03-23T07:57:35.103Z,40.62
2023-03-23T07:58:12.766Z,41.17
2023-03-23T07:58:45.959Z,41.17
2023-03-23T07:59:21.685Z,41.43
2023-03-23T07:59:54.308Z,41.54
2023-03-23T08:00:29.914Z,41.64
2023-03-23T08:01:03.985Z,40.92
2023-03-23T08:01:38.572Z,40.75
2023-03-23T08:02:33.056Z,40.55
2023-03-23T08:03:40.111Z,40.76
2023-03-23T08:04:40.900Z,40.19
2023-03-23T08:05:37.331Z,40.39
2023-03-23T08:06:21.037Z,40.76
2023-03-23T08:07:13.641Z,40.48
2023-03-23T08:08:03.947Z,40.70
2023-03-23T08:08:59.101Z,40.21
2023-03-23T08:09:53.972Z,40.28
2023-03-23T08:11:07.487Z,39.99
2023-03-23T08:12:09.157Z,39.99
2023-03-23T08:13:16.320Z,40.65
2023-03-23T08:14:00.143Z,40.36
2023-03-23T08:14:53.650Z,40.40
2023-03-23T08:15:46.590Z,40.36
2023-03-23T08:16:40.646Z,39.99